Time;durP1;ratioP1;P1;durP2;ratioP2;P2;SDS_P1;SDS_P2;PMS_P1;PMS_P2;Temp;Humidity;BMP_temperature;BMP_pressure;BME280_temperature;BME280_humidity;BME280_pressure;Samples;Min_cycle;Max_cycle;Signal;HPM_P1;HPM_P2
2021/09/25 00:00:21;;;;;;;11.10;7.47;;;15.90;99.90;;;;;;5098075;28;20199;-78
2021/09/25 00:02:48;;;;;;;11.00;8.20;;;15.80;99.90;;;;;;5100596;28;20198;-78
2021/09/25 00:05:14;;;;;;;11.03;7.77;;;16.00;99.90;;;;;;5103101;28;20195;-77
2021/09/25 00:07:39;;;;;;;10.90;7.53;;;16.00;99.90;;;;;;5083550;28;20197;-79
2021/09/25 00:10:06;;;;;;;9.63;7.27;;;16.00;99.90;;;;;;5099184;28;20171;-77
2021/09/25 00:12:31;;;;;;;12.23;8.60;;;15.90;99.90;;;;;;5101463;28;20186;-76
2021/09/25 00:14:57;;;;;;;12.33;8.60;;;15.90;99.90;;;;;;5100453;28;20178;-77
2021/09/25 00:17:23;;;;;;;11.87;8.30;;;16.00;99.90;;;;;;5098724;28;20240;-77
2021/09/25 00:19:49;;;;;;;12.10;8.40;;;15.90;99.90;;;;;;5115063;28;20174;-74
2021/09/25 00:22:14;;;;;;;11.57;8.90;;;15.80;99.90;;;;;;5110213;28;20279;-77
2021/09/25 00:24:40;;;;;;;12.23;9.37;;;15.70;99.90;;;;;;5104761;28;20171;-80
2021/09/25 00:27:06;;;;;;;13.60;9.13;;;15.80;99.90;;;;;;5105218;28;20180;-78
2021/09/25 00:29:32;;;;;;;10.20;8.20;;;15.80;99.90;;;;;;5106013;28;20615;-80
2021/09/25 00:31:58;;;;;;;10.73;8.20;;;15.70;99.90;;;;;;5094722;28;20642;-77
2021/09/25 00:34:24;;;;;;;10.93;8.77;;;15.70;99.90;;;;;;5093980;28;20164;-76
2021/09/25 00:36:50;;;;;;;12.17;8.90;;;15.70;99.90;;;;;;5093506;28;20211;-80
2021/09/25 00:39:18;;;;;;;12.97;9.33;;;15.80;99.90;;;;;;5093186;28;20176;-76
2021/09/25 00:41:44;;;;;;;13.20;9.50;;;15.80;99.90;;;;;;5098694;28;20170;-78
2021/09/25 00:44:10;;;;;;;11.63;8.50;;;15.80;99.90;;;;;;5100394;28;20297;-79
2021/09/25 00:46:35;;;;;;;13.07;8.70;;;15.70;99.90;;;;;;5100028;28;20653;-79
2021/09/25 00:49:01;;;;;;;12.33;9.80;;;15.60;99.90;;;;;;5100823;28;20248;-78
2021/09/25 00:51:27;;;;;;;12.37;9.47;;;15.60;99.90;;;;;;5100188;28;20357;-77
2021/09/25 00:53:52;;;;;;;15.37;8.83;;;15.50;99.90;;;;;;5099783;28;20214;-79
2021/09/25 00:56:19;;;;;;;13.10;9.33;;;15.60;99.90;;;;;;5081862;28;20608;-81
2021/09/25 00:58:45;;;;;;;12.70;9.73;;;15.60;99.90;;;;;;5100010;28;20181;-76
2021/09/25 01:01:11;;;;;;;14.77;9.20;;;15.60;99.90;;;;;;5100077;28;20663;-77
2021/09/25 01:03:37;;;;;;;12.40;9.37;;;15.50;99.90;;;;;;5100082;28;20161;-77
2021/09/25 01:06:03;;;;;;;12.57;9.20;;;15.60;99.90;;;;;;5101862;28;20166;-77
2021/09/25 01:08:29;;;;;;;12.33;9.00;;;15.50;99.90;;;;;;5106250;28;20218;-78
2021/09/25 01:10:55;;;;;;;12.63;9.27;;;15.50;99.90;;;;;;5102228;28;20195;-79
2021/09/25 01:13:22;;;;;;;14.10;10.00;;;15.40;99.90;;;;;;5100151;28;20709;-77
2021/09/25 01:15:48;;;;;;;14.23;9.50;;;15.60;99.90;;;;;;5099720;28;20267;-79
2021/09/25 01:18:14;;;;;;;16.00;10.43;;;15.60;99.90;;;;;;5099866;28;20629;-76
2021/09/25 01:20:40;;;;;;;13.23;9.83;;;15.60;99.90;;;;;;5099906;28;20172;-77
2021/09/25 01:23:06;;;;;;;14.07;10.70;;;15.70;99.90;;;;;;5099739;28;20525;-79
2021/09/25 01:25:33;;;;;;;16.80;10.47;;;15.50;99.90;;;;;;5081586;28;20177;-81
2021/09/25 01:27:59;;;;;;;14.13;9.63;;;15.40;99.90;;;;;;5106015;28;20176;-77
2021/09/25 01:30:25;;;;;;;14.47;9.87;;;15.50;99.90;;;;;;5108272;28;20185;-76
2021/09/25 01:32:52;;;;;;;15.13;10.57;;;15.50;99.90;;;;;;5099880;28;20180;-78
2021/09/25 01:35:20;;;;;;;13.83;10.80;;;15.40;99.90;;;;;;5099621;28;20593;-81
2021/09/25 01:37:47;;;;;;;17.33;11.43;;;15.50;99.90;;;;;;5099559;28;20178;-80
2021/09/25 01:40:14;;;;;;;15.77;11.00;;;15.60;99.90;;;;;;5099861;28;20193;-78
2021/09/25 01:42:40;;;;;;;15.80;10.10;;;15.60;99.90;;;;;;5101119;28;20171;-77
2021/09/25 01:45:06;;;;;;;12.73;10.57;;;15.50;99.90;;;;;;5101705;28;20258;-77
2021/09/25 01:47:32;;;;;;;13.63;11.10;;;15.50;99.90;;;;;;5102234;28;20688;-77
2021/09/25 01:50:03;;;;;;;11.83;10.37;;;15.50;99.90;;;;;;5101475;28;20170;-78
2021/09/25 01:52:29;;;;;;;16.13;11.13;;;15.70;99.90;;;;;;5097782;28;20237;-77
2021/09/25 01:54:55;;;;;;;15.27;11.23;;;15.70;99.90;;;;;;5080169;28;20636;-77
2021/09/25 01:57:20;;;;;;;13.33;10.63;;;15.70;99.90;;;;;;5097856;28;20213;-78
2021/09/25 01:59:46;;;;;;;13.03;10.37;;;15.70;99.90;;;;;;5097393;28;20316;-76
2021/09/25 02:02:12;;;;;;;14.77;10.37;;;15.60;99.90;;;;;;5097448;28;20194;-76
2021/09/25 02:04:45;;;;;;;14.67;10.93;;;15.60;99.90;;;;;;5097346;28;20662;-78
2021/09/25 02:07:11;;;;;;;14.67;10.87;;;15.60;99.90;;;;;;5097867;28;20244;-79
2021/09/25 02:09:36;;;;;;;15.53;11.83;;;15.60;99.90;;;;;;5100956;28;20167;-76
2021/09/25 02:12:03;;;;;;;16.30;12.30;;;15.60;99.90;;;;;;5106932;28;20177;-75
2021/09/25 02:14:28;;;;;;;14.43;10.93;;;15.50;99.90;;;;;;5098871;28;20170;-77
2021/09/25 02:16:54;;;;;;;15.17;11.63;;;15.50;99.90;;;;;;5096885;28;20213;-76
2021/09/25 02:19:21;;;;;;;15.23;11.43;;;15.50;99.90;;;;;;5095662;28;20164;-77
2021/09/25 02:21:46;;;;;;;15.97;11.73;;;15.40;99.90;;;;;;5096740;28;20183;-75
2021/09/25 02:24:13;;;;;;;15.27;11.90;;;15.40;99.90;;;;;;5097243;28;20164;-79
2021/09/25 02:26:39;;;;;;;15.60;12.30;;;15.40;99.90;;;;;;5097067;28;20312;-77
2021/09/25 02:29:05;;;;;;;15.47;12.40;;;15.40;99.90;;;;;;5082102;28;20173;-76
2021/09/25 02:31:30;;;;;;;15.70;12.93;;;15.30;99.90;;;;;;5109376;28;20682;-76
2021/09/25 02:33:56;;;;;;;17.37;12.37;;;15.30;99.90;;;;;;5108796;28;20164;-76
2021/09/25 02:36:21;;;;;;;15.73;12.23;;;15.40;99.90;;;;;;5107452;28;20204;-74
2021/09/25 02:38:47;;;;;;;18.23;13.30;;;15.50;99.90;;;;;;5109827;28;20171;-75
2021/09/25 02:41:15;;;;;;;17.20;13.00;;;15.50;99.90;;;;;;5105633;28;20202;-76
2021/09/25 02:43:40;;;;;;;17.30;13.13;;;15.50;99.90;;;;;;5101030;28;20788;-78
2021/09/25 02:46:06;;;;;;;15.77;12.37;;;15.50;99.90;;;;;;5098552;28;20174;-76
2021/09/25 02:48:32;;;;;;;18.07;13.33;;;15.40;99.90;;;;;;5095584;28;20202;-76
2021/09/25 02:50:57;;;;;;;19.37;13.07;;;15.30;99.90;;;;;;5095034;28;20256;-77
2021/09/25 02:53:23;;;;;;;18.73;12.90;;;15.30;99.90;;;;;;5095305;28;20574;-82
2021/09/25 02:55:49;;;;;;;17.17;13.03;;;15.40;99.90;;;;;;5095079;28;20217;-76
2021/09/25 02:58:14;;;;;;;19.47;13.80;;;15.40;99.90;;;;;;5076885;28;20198;-78
2021/09/25 03:00:40;;;;;;;17.00;12.70;;;15.50;99.90;;;;;;5095154;28;20221;-77
2021/09/25 03:03:06;;;;;;;18.47;13.33;;;15.60;99.90;;;;;;5094519;28;20179;-79
2021/09/25 03:05:32;;;;;;;18.97;13.30;;;15.60;99.90;;;;;;5094961;28;20245;-78
2021/09/25 03:07:57;;;;;;;19.03;13.67;;;15.70;99.90;;;;;;5095041;28;20194;-79
2021/09/25 03:10:23;;;;;;;17.50;13.33;;;15.70;99.90;;;;;;5095175;28;20211;-77
2021/09/25 03:12:49;;;;;;;20.60;15.20;;;15.60;99.90;;;;;;5095067;28;20167;-77
2021/09/25 03:15:15;;;;;;;17.00;13.93;;;15.50;99.90;;;;;;5094952;28;20223;-78
2021/09/25 03:17:40;;;;;;;17.97;13.83;;;15.50;99.90;;;;;;5094474;28;20183;-78
2021/09/25 03:20:07;;;;;;;18.93;13.57;;;15.40;99.90;;;;;;5095103;28;20176;-80
2021/09/25 03:22:33;;;;;;;19.47;14.23;;;15.40;99.90;;;;;;5094350;28;20167;-80
2021/09/25 03:24:59;;;;;;;19.77;14.03;;;15.50;99.90;;;;;;5094658;28;20699;-79
2021/09/25 03:27:25;;;;;;;19.07;14.40;;;15.60;99.90;;;;;;5094476;28;20185;-77
2021/09/25 03:29:52;;;;;;;20.10;15.43;;;15.70;99.90;;;;;;5094601;28;20175;-78
2021/09/25 03:32:18;;;;;;;19.17;14.20;;;15.70;99.90;;;;;;5094316;28;20177;-80
2021/09/25 03:34:44;;;;;;;19.33;15.13;;;15.80;99.90;;;;;;5094950;28;20168;-79
2021/09/25 03:37:10;;;;;;;18.80;15.10;;;15.80;99.90;;;;;;5094395;28;20679;-77
2021/09/25 03:39:36;;;;;;;20.80;15.30;;;15.80;99.90;;;;;;5094781;28;20528;-78
2021/09/25 03:42:02;;;;;;;19.00;15.33;;;15.60;99.90;;;;;;5094126;28;20667;-76
2021/09/25 03:44:28;;;;;;;21.63;16.07;;;15.50;99.90;;;;;;5094630;28;20179;-77
2021/09/25 03:46:55;;;;;;;17.87;13.93;;;15.50;99.90;;;;;;5094238;28;20537;-76
2021/09/25 03:49:21;;;;;;;20.03;15.30;;;15.50;99.90;;;;;;5094147;28;20166;-79
2021/09/25 03:51:46;;;;;;;21.30;15.73;;;15.60;99.90;;;;;;5094100;28;20211;-76
2021/09/25 03:54:12;;;;;;;20.50;15.63;;;15.60;99.90;;;;;;5094255;28;20251;-77
2021/09/25 03:56:38;;;;;;;21.33;16.40;;;15.60;99.90;;;;;;5075642;28;20324;-76
2021/09/25 03:59:04;;;;;;;19.13;15.87;;;15.60;99.90;;;;;;5093915;28;20164;-75
2021/09/25 04:01:30;;;;;;;20.57;14.90;;;15.60;99.90;;;;;;5094209;28;20669;-76
2021/09/25 04:03:56;;;;;;;19.40;14.83;;;15.50;99.90;;;;;;5097485;28;20212;-76
2021/09/25 04:06:25;;;;;;;22.50;15.83;;;15.40;99.90;;;;;;5095544;28;20171;-75
2021/09/25 04:08:50;;;;;;;22.23;15.57;;;15.30;99.90;;;;;;5093897;28;20248;-78
2021/09/25 04:11:16;;;;;;;20.80;14.80;;;15.40;99.90;;;;;;5093885;28;20574;-76
2021/09/25 04:13:42;;;;;;;21.90;16.37;;;15.50;99.90;;;;;;5094011;28;20292;-77
2021/09/25 04:16:08;;;;;;;18.73;15.07;;;15.70;99.90;;;;;;5093321;28;20675;-81
2021/09/25 04:18:33;;;;;;;20.13;15.63;;;15.60;99.90;;;;;;5094400;28;20171;-79
2021/09/25 04:20:59;;;;;;;19.87;15.07;;;15.70;99.90;;;;;;5099390;28;20180;-76
2021/09/25 04:23:25;;;;;;;19.17;14.83;;;15.60;99.90;;;;;;5101293;28;20172;-78
2021/09/25 04:25:50;;;;;;;19.10;15.07;;;15.60;99.90;;;;;;5098567;28;20190;-78
2021/09/25 04:28:16;;;;;;;19.33;15.70;;;15.70;99.90;;;;;;5101880;28;20178;-81
2021/09/25 04:30:42;;;;;;;18.80;16.17;;;15.60;99.90;;;;;;5094994;28;20639;-77
2021/09/25 04:33:10;;;;;;;20.17;15.27;;;15.40;99.90;;;;;;5094653;28;20648;-77
2021/09/25 04:35:37;;;;;;;19.47;15.23;;;15.40;99.90;;;;;;5094023;28;20285;-80
2021/09/25 04:38:03;;;;;;;20.53;16.03;;;15.40;99.90;;;;;;5093542;28;20171;-81
2021/09/25 04:40:29;;;;;;;21.53;15.70;;;15.20;99.90;;;;;;5093943;28;20222;-77
2021/09/25 04:42:56;;;;;;;20.60;15.83;;;15.20;99.90;;;;;;5093508;28;20168;-76
2021/09/25 04:45:22;;;;;;;21.90;16.33;;;15.20;99.90;;;;;;5093301;28;20176;-80
2021/09/25 04:47:47;;;;;;;19.43;16.13;;;15.30;99.90;;;;;;5092959;28;20252;-82
2021/09/25 04:50:14;;;;;;;22.03;15.33;;;15.10;99.90;;;;;;5093295;28;20542;-79
2021/09/25 04:52:41;;;;;;;21.33;16.43;;;15.20;99.90;;;;;;5093656;28;20168;-78
2021/09/25 04:55:07;;;;;;;20.30;14.80;;;15.20;99.90;;;;;;5101005;28;20167;-75
2021/09/25 04:57:33;;;;;;;20.07;16.07;;;15.30;99.90;;;;;;5109672;28;20218;-77
2021/09/25 04:59:59;;;;;;;23.50;16.63;;;15.20;99.90;;;;;;5085502;28;20172;-80
2021/09/25 05:02:25;;;;;;;20.20;15.83;;;15.10;99.90;;;;;;5101691;28;20236;-77
2021/09/25 05:04:51;;;;;;;21.17;15.43;;;15.00;99.90;;;;;;5095354;28;20190;-79
2021/09/25 05:07:16;;;;;;;21.17;15.57;;;15.10;99.90;;;;;;5096283;28;20185;-78
2021/09/25 05:09:44;;;;;;;23.13;16.93;;;15.00;99.90;;;;;;5094174;28;20255;-79
2021/09/25 05:12:09;;;;;;;19.20;15.60;;;15.10;99.90;;;;;;5094424;28;20156;-82
2021/09/25 05:14:35;;;;;;;20.13;16.27;;;15.10;99.90;;;;;;5094210;28;20172;-81
2021/09/25 05:17:02;;;;;;;21.67;16.70;;;14.90;99.90;;;;;;5101410;28;20214;-80
2021/09/25 05:19:28;;;;;;;19.83;15.83;;;15.00;99.90;;;;;;5096262;28;20170;-77
2021/09/25 05:21:54;;;;;;;22.20;16.73;;;14.90;99.90;;;;;;5103684;28;20230;-78
2021/09/25 05:24:20;;;;;;;20.53;16.60;;;14.80;99.90;;;;;;5096877;28;20191;-82
2021/09/25 05:26:48;;;;;;;21.80;16.83;;;14.80;99.90;;;;;;5075693;28;20179;-78
2021/09/25 05:29:16;;;;;;;21.80;17.00;;;14.80;99.90;;;;;;5095740;28;20187;-82
2021/09/25 05:31:42;;;;;;;21.33;16.40;;;14.90;99.90;;;;;;5097166;28;20168;-82
2021/09/25 05:34:08;;;;;;;22.70;16.20;;;14.80;99.90;;;;;;5096679;28;20168;-80
2021/09/25 05:36:34;;;;;;;23.30;16.90;;;14.80;99.90;;;;;;5096973;28;20215;-79
2021/09/25 05:38:59;;;;;;;22.57;17.63;;;14.80;99.90;;;;;;5096833;28;20173;-82
2021/09/25 05:41:25;;;;;;;19.47;15.83;;;14.90;99.90;;;;;;5096963;28;20210;-80
2021/09/25 05:43:53;;;;;;;22.73;17.30;;;14.80;99.90;;;;;;5097024;28;20168;-79
2021/09/25 05:46:19;;;;;;;23.33;16.83;;;14.80;99.90;;;;;;5097596;28;20169;-78
2021/09/25 05:48:47;;;;;;;23.10;16.40;;;14.70;99.90;;;;;;5097436;28;20183;-82
2021/09/25 05:51:14;;;;;;;23.30;16.67;;;14.70;99.90;;;;;;5100183;28;20168;-79
2021/09/25 05:53:40;;;;;;;21.67;17.23;;;14.70;99.90;;;;;;5098484;28;20174;-80
2021/09/25 05:56:06;;;;;;;20.80;16.30;;;14.70;99.90;;;;;;5096727;28;20295;-82
2021/09/25 05:58:31;;;;;;;23.73;17.43;;;14.70;99.90;;;;;;5096438;28;20176;-80
2021/09/25 06:00:57;;;;;;;19.27;15.93;;;14.70;99.90;;;;;;5097117;28;20173;-81
2021/09/25 06:03:23;;;;;;;21.50;16.30;;;14.80;99.90;;;;;;5097220;28;20170;-82
2021/09/25 06:05:48;;;;;;;22.40;16.80;;;14.90;99.90;;;;;;5096538;28;20206;-82
2021/09/25 06:08:15;;;;;;;23.67;16.07;;;15.00;99.90;;;;;;5096062;28;20183;-82
2021/09/25 06:10:41;;;;;;;21.43;16.93;;;14.90;99.90;;;;;;5096406;28;20670;-83
2021/09/25 06:13:10;;;;;;;22.87;17.67;;;14.90;99.90;;;;;;5096034;28;20187;-81
2021/09/25 06:15:36;;;;;;;23.20;16.60;;;14.80;99.90;;;;;;5096135;28;20225;-81
2021/09/25 06:18:02;;;;;;;22.10;16.33;;;14.80;99.90;;;;;;5095935;28;20210;-76
2021/09/25 06:20:28;;;;;;;19.30;15.23;;;14.90;99.90;;;;;;5097071;28;20164;-81
2021/09/25 06:22:54;;;;;;;20.43;16.30;;;14.90;99.90;;;;;;5099263;28;20714;-78
2021/09/25 06:25:19;;;;;;;20.83;15.70;;;14.90;99.90;;;;;;5098110;28;20250;-77
2021/09/25 06:27:45;;;;;;;20.10;16.10;;;15.10;99.90;;;;;;5098599;28;20234;-77
2021/09/25 06:30:11;;;;;;;21.47;16.03;;;15.20;99.90;;;;;;5097903;28;20176;-81
2021/09/25 06:32:38;;;;;;;21.97;16.60;;;15.20;99.90;;;;;;5109210;28;20182;-77
2021/09/25 06:35:06;;;;;;;19.83;15.97;;;15.20;99.90;;;;;;5102162;28;20170;-76
2021/09/25 06:37:31;;;;;;;19.63;15.90;;;15.30;99.90;;;;;;5094859;28;20208;-77
2021/09/25 06:39:57;;;;;;;21.37;16.53;;;15.40;99.90;;;;;;5094690;28;20164;-77
2021/09/25 06:42:23;;;;;;;20.80;17.00;;;15.50;99.90;;;;;;5094615;28;20171;-76
2021/09/25 06:44:49;;;;;;;19.77;16.03;;;15.40;99.90;;;;;;5094961;28;20642;-74
2021/09/25 06:47:14;;;;;;;18.67;15.17;;;15.40;99.90;;;;;;5094702;28;20167;-76
2021/09/25 06:49:42;;;;;;;20.00;16.13;;;15.30;99.90;;;;;;5094915;28;20251;-76
2021/09/25 06:52:10;;;;;;;21.30;17.07;;;15.50;99.90;;;;;;5095214;28;20222;-77
2021/09/25 06:54:37;;;;;;;18.40;14.90;;;15.70;99.90;;;;;;5096202;28;20168;-81
2021/09/25 06:57:03;;;;;;;19.73;15.63;;;15.60;99.90;;;;;;5099686;28;20203;-77
2021/09/25 06:59:29;;;;;;;19.83;16.07;;;15.80;99.90;;;;;;5097425;28;20171;-76
2021/09/25 07:01:55;;;;;;;19.83;15.90;;;15.90;99.90;;;;;;5095599;28;20168;-81
2021/09/25 07:04:20;;;;;;;19.57;15.73;;;16.00;99.90;;;;;;5077063;28;20195;-86
2021/09/25 07:06:46;;;;;;;21.23;16.00;;;16.20;99.90;;;;;;5078553;28;20638;-83
2021/09/25 07:09:12;;;;;;;17.53;14.97;;;16.20;99.90;;;;;;5094765;28;20163;-77
2021/09/25 07:11:37;;;;;;;20.37;15.90;;;16.20;99.90;;;;;;5095679;28;20186;-84
2021/09/25 07:14:05;;;;;;;19.93;15.87;;;16.20;99.90;;;;;;5095231;28;20174;-80
2021/09/25 07:16:31;;;;;;;21.70;16.53;;;16.20;99.90;;;;;;5099236;28;20387;-78
2021/09/25 07:18:56;;;;;;;21.17;15.87;;;16.20;99.90;;;;;;5100142;28;20530;-77
2021/09/25 07:21:23;;;;;;;20.00;16.40;;;16.30;99.90;;;;;;5094375;28;20164;-77
2021/09/25 07:23:54;;;;;;;20.70;16.43;;;16.10;99.90;;;;;;5096450;28;20171;-81
2021/09/25 07:26:20;;;;;;;20.27;15.83;;;16.20;99.90;;;;;;5094181;28;20244;-78
2021/09/25 07:28:49;;;;;;;21.13;16.47;;;16.20;99.90;;;;;;5098916;28;20171;-79
2021/09/25 07:31:15;;;;;;;19.87;15.87;;;16.20;99.90;;;;;;5095721;28;20198;-76
2021/09/25 07:33:41;;;;;;;21.00;16.37;;;16.40;99.90;;;;;;5097257;28;20170;-86
2021/09/25 07:36:07;;;;;;;19.70;15.90;;;16.50;99.90;;;;;;5096451;28;20206;-81
2021/09/25 07:38:33;;;;;;;18.87;16.30;;;16.60;99.90;;;;;;5093724;28;20526;-77
2021/09/25 07:40:59;;;;;;;19.97;15.80;;;16.70;99.90;;;;;;5094679;28;20168;-77
2021/09/25 07:43:25;;;;;;;17.50;15.23;;;17.00;99.90;;;;;;5095195;28;20164;-79
2021/09/25 07:45:51;;;;;;;19.27;15.77;;;17.00;99.60;;;;;;5092935;28;20209;-78
2021/09/25 07:48:18;;;;;;;20.80;16.20;;;17.10;98.90;;;;;;5092875;28;20178;-81
2021/09/25 07:50:44;;;;;;;18.53;15.87;;;17.10;99.30;;;;;;5094635;28;20487;-79
2021/09/25 07:53:09;;;;;;;19.97;16.27;;;17.10;99.40;;;;;;5095812;28;20170;-77
2021/09/25 07:55:36;;;;;;;18.60;15.70;;;17.10;99.50;;;;;;5093504;28;20615;-80
2021/09/25 07:58:02;;;;;;;18.40;14.93;;;17.20;99.10;;;;;;5093121;28;20252;-77
2021/09/25 08:00:28;;;;;;;19.37;14.70;;;17.20;99.10;;;;;;5091687;28;20164;-77
2021/09/25 08:02:54;;;;;;;18.30;14.77;;;17.20;99.30;;;;;;5093367;28;20171;-78
2021/09/25 08:05:19;;;;;;;17.77;15.10;;;17.20;99.50;;;;;;5087547;28;20261;-77
2021/09/25 08:07:45;;;;;;;18.93;16.07;;;17.30;99.30;;;;;;5093342;28;20636;-77
2021/09/25 08:10:13;;;;;;;19.27;15.00;;;17.50;99.00;;;;;;5092649;28;20191;-80
2021/09/25 08:12:39;;;;;;;18.63;14.97;;;17.60;98.10;;;;;;5093158;28;20256;-77
2021/09/25 08:15:08;;;;;;;16.80;14.53;;;17.80;97.40;;;;;;5093109;28;20187;-76
2021/09/25 08:17:34;;;;;;;20.23;15.30;;;17.80;97.40;;;;;;5093020;28;20428;-78
2021/09/25 08:20:00;;;;;;;19.07;15.27;;;17.80;97.70;;;;;;5082818;28;20179;-75
2021/09/25 08:22:26;;;;;;;16.77;14.70;;;17.70;97.90;;;;;;5072811;28;20177;-75
2021/09/25 08:24:52;;;;;;;17.93;14.67;;;17.80;97.90;;;;;;5073407;28;20173;-77
2021/09/25 08:27:17;;;;;;;20.50;14.97;;;17.90;97.40;;;;;;5073214;28;20178;-77
2021/09/25 08:29:44;;;;;;;20.27;15.77;;;18.00;97.70;;;;;;5073404;28;20626;-78
2021/09/25 08:32:10;;;;;;;19.67;16.10;;;18.10;96.90;;;;;;5083245;28;20178;-79
2021/09/25 08:34:35;;;;;;;19.00;15.80;;;18.30;96.40;;;;;;5092941;28;20246;-77
2021/09/25 08:37:03;;;;;;;20.07;17.90;;;18.30;95.60;;;;;;5092554;28;20211;-77
2021/09/25 08:39:28;;;;;;;20.03;17.53;;;18.40;95.50;;;;;;5094072;28;20250;-81
2021/09/25 08:41:55;;;;;;;19.13;15.47;;;18.30;95.50;;;;;;5093431;28;20211;-77
2021/09/25 08:44:21;;;;;;;19.00;14.73;;;18.30;95.80;;;;;;5093454;28;20200;-77
2021/09/25 08:46:47;;;;;;;17.77;14.80;;;18.30;96.10;;;;;;5093514;28;20683;-79
2021/09/25 08:49:12;;;;;;;20.63;15.50;;;18.30;96.00;;;;;;5093160;28;20258;-79
2021/09/25 08:51:39;;;;;;;19.17;14.57;;;18.30;96.40;;;;;;5093127;28;20253;-78
2021/09/25 08:54:05;;;;;;;18.60;14.53;;;18.40;96.40;;;;;;5092940;28;20646;-78
2021/09/25 08:56:31;;;;;;;17.23;13.30;;;18.40;96.00;;;;;;5092761;28;20203;-79
2021/09/25 08:58:58;;;;;;;16.40;13.53;;;18.50;96.20;;;;;;5093279;28;20266;-77
2021/09/25 09:01:28;;;;;;;16.73;14.03;;;18.40;95.70;;;;;;5096350;28;20275;-77
2021/09/25 09:03:55;;;;;;;15.50;13.33;;;18.60;95.60;;;;;;5100368;28;20201;-76
2021/09/25 09:06:24;;;;;;;14.80;13.20;;;18.50;95.50;;;;;;5097547;28;20202;-77
2021/09/25 09:08:53;;;;;;;16.63;13.27;;;18.70;95.10;;;;;;5091967;28;20241;-77
2021/09/25 09:11:21;;;;;;;15.90;13.77;;;18.70;94.50;;;;;;5077431;28;20255;-79
2021/09/25 09:13:52;;;;;;;17.00;12.80;;;18.70;94.80;;;;;;5080448;28;20171;-77
2021/09/25 09:16:18;;;;;;;17.97;12.73;;;18.80;94.90;;;;;;5083383;28;20211;-78
2021/09/25 09:18:48;;;;;;;14.37;12.87;;;18.80;94.10;;;;;;5063377;28;20170;-80
2021/09/25 09:21:20;;;;;;;14.53;12.47;;;18.90;93.70;;;;;;5095601;28;20187;-77
2021/09/25 09:23:49;;;;;;;16.67;13.50;;;19.10;93.70;;;;;;5089405;28;20213;-79
2021/09/25 09:26:18;;;;;;;15.97;13.30;;;19.30;92.70;;;;;;5097536;28;20699;-80
2021/09/25 09:28:45;;;;;;;15.40;12.13;;;19.40;91.70;;;;;;5091474;28;20280;-81
2021/09/25 09:31:13;;;;;;;15.83;12.20;;;19.50;91.10;;;;;;5080902;28;20176;-81
2021/09/25 09:33:41;;;;;;;16.10;13.10;;;19.50;91.20;;;;;;5083942;28;20179;-78
2021/09/25 09:36:11;;;;;;;13.97;12.00;;;19.40;91.40;;;;;;5083145;28;20195;-79
2021/09/25 09:38:50;;;;;;;13.23;11.57;;;19.70;90.20;;;;;;5100310;28;20183;-79
2021/09/25 09:41:30;;;;;;;13.47;11.33;;;19.60;90.30;;;;;;5098089;28;20175;-79
2021/09/25 09:44:00;;;;;;;13.70;12.13;;;19.70;90.00;;;;;;5096720;28;20175;-78
2021/09/25 09:46:49;;;;;;;14.10;12.60;;;19.90;84.70;;;;;;5079486;28;20171;-79
2021/09/25 09:49:28;;;;;;;13.70;11.50;;;19.80;85.40;;;;;;5078611;28;20167;-78
2021/09/25 09:52:01;;;;;;;16.20;12.33;;;19.80;88.70;;;;;;5096570;28;20587;-80
2021/09/25 09:54:30;;;;;;;13.07;11.53;;;19.90;88.00;;;;;;5096755;28;20187;-76
2021/09/25 09:56:58;;;;;;;16.07;11.37;;;20.10;85.30;;;;;;5098626;28;20210;-79
2021/09/25 09:59:25;;;;;;;14.00;11.30;;;20.20;83.50;;;;;;5097180;28;20175;-80
2021/09/25 10:01:52;;;;;;;14.40;11.57;;;20.40;82.80;;;;;;5097575;28;20185;-79
2021/09/25 10:04:19;;;;;;;13.40;11.87;;;20.50;80.40;;;;;;5095320;28;20279;-79
2021/09/25 10:06:46;;;;;;;13.13;11.33;;;20.70;77.30;;;;;;5095523;28;20256;-80
2021/09/25 10:09:18;;;;;;;14.77;11.73;;;20.80;75.10;;;;;;5094924;28;20265;-77
2021/09/25 10:11:47;;;;;;;12.37;10.23;;;20.90;72.90;;;;;;5080950;28;20535;-77
2021/09/25 10:14:21;;;;;;;12.23;10.67;;;21.00;66.00;;;;;;5095720;28;20675;-81
2021/09/25 10:16:48;;;;;;;12.67;9.97;;;21.10;66.70;;;;;;5096192;28;20530;-78
2021/09/25 10:19:23;;;;;;;13.37;10.03;;;21.10;69.20;;;;;;5096412;28;20165;-78
2021/09/25 10:21:58;;;;;;;12.17;10.57;;;21.00;69.40;;;;;;5098551;28;20172;-78
2021/09/25 10:24:29;;;;;;;12.27;10.57;;;21.20;67.10;;;;;;5102683;28;20170;-82
2021/09/25 10:26:55;;;;;;;13.00;10.23;;;21.40;64.20;;;;;;5086056;28;20175;-81
2021/09/25 10:29:24;;;;;;;12.30;10.67;;;21.60;61.60;;;;;;5088339;28;20250;-83
2021/09/25 10:32:21;;;;;;;10.00;8.60;;;21.40;61.30;;;;;;5106232;28;20186;-82
2021/09/25 10:35:03;;;;;;;10.47;7.80;;;21.50;60.60;;;;;;5112496;28;20193;-80
2021/09/25 10:37:44;;;;;;;11.03;7.90;;;21.70;57.30;;;;;;5102118;28;20202;-84
2021/09/25 10:40:18;;;;;;;10.60;8.70;;;21.80;56.10;;;;;;5097654;28;20194;-83
2021/09/25 10:43:00;;;;;;;8.40;7.43;;;21.70;56.90;;;;;;5111241;28;20600;-78
2021/09/25 10:45:38;;;;;;;8.57;7.27;;;21.90;53.20;;;;;;5113069;28;20191;-81
2021/09/25 10:48:19;;;;;;;10.57;8.60;;;22.00;50.20;;;;;;5100981;28;20183;-82
2021/09/25 10:51:14;;;;;;;8.27;7.23;;;21.90;49.20;;;;;;5078213;28;20175;-84
2021/09/25 10:53:43;;;;;;;10.33;8.33;;;22.10;44.30;;;;;;5095176;28;20187;-82
2021/09/25 10:56:15;;;;;;;8.47;7.13;;;22.30;43.10;;;;;;5096361;28;20214;-82
2021/09/25 10:58:41;;;;;;;8.47;6.20;;;22.40;39.70;;;;;;5097040;28;20527;-85
2021/09/25 11:01:13;;;;;;;8.80;6.37;;;22.30;27.60;;;;;;5102435;28;20179;-80
2021/09/25 11:03:43;;;;;;;7.53;6.63;;;22.40;26.00;;;;;;5107272;28;20227;-77
2021/09/25 11:06:14;;;;;;;8.60;6.50;;;22.30;26.10;;;;;;5100800;28;20164;-79
2021/09/25 11:09:01;;;;;;;8.33;7.23;;;22.20;20.20;;;;;;5076278;28;20250;-77
2021/09/25 11:11:37;;;;;;;7.53;6.60;;;22.10;26.50;;;;;;5096344;28;20242;-82
2021/09/25 11:14:03;;;;;;;7.53;5.97;;;22.30;26.30;;;;;;5094921;28;20169;-80
2021/09/25 11:16:56;;;;;;;9.63;6.43;;;22.30;22.80;;;;;;5096141;28;20199;-80
2021/09/25 11:19:24;;;;;;;10.73;7.00;;;22.30;22.00;;;;;;5063974;28;20202;-82
2021/09/25 11:21:56;;;;;;;8.87;6.63;;;22.50;17.60;;;;;;5093744;28;20207;-84
2021/09/25 11:24:21;;;;;;;6.43;5.07;;;22.30;18.80;;;;;;5092876;28;20276;-82
2021/09/25 11:26:51;;;;;;;5.57;4.83;;;22.10;9.30;;;;;;5096552;28;20635;-77
2021/09/25 11:29:17;;;;;;;8.20;5.40;;;22.10;15.30;;;;;;5094217;28;20191;-82
2021/09/25 11:31:50;;;;;;;8.37;6.37;;;22.00;22.40;;;;;;5094036;28;20225;-81
2021/09/25 11:34:27;;;;;;;6.10;5.17;;;22.00;25.20;;;;;;5095441;28;20187;-82
2021/09/25 11:36:55;;;;;;;7.00;4.17;;;22.10;9.00;;;;;;5095601;28;20290;-81
2021/09/25 11:39:21;;;;;;;5.53;4.37;;;22.10;4.90;;;;;;5094883;28;20683;-84
2021/09/25 11:42:26;;;;;;;5.23;4.50;;;22.30;4.30;;;;;;5095773;28;20659;-85
2021/09/25 11:44:59;;;;;;;6.67;5.00;;;22.30;1.00;;;;;;5079672;28;20172;-81
2021/09/25 11:47:41;;;;;;;6.17;4.80;;;22.20;10.60;;;;;;5082381;28;20195;-80
2021/09/25 11:50:14;;;;;;;5.63;4.20;;;22.40;4.20;;;;;;5112688;28;20561;-83
2021/09/25 11:52:42;;;;;;;6.90;5.10;;;22.50;4.20;;;;;;5111415;28;20199;-82
2021/09/25 11:55:09;;;;;;;6.43;4.93;;;22.30;14.20;;;;;;5085466;28;20168;-77
2021/09/25 11:57:35;;;;;;;6.73;5.50;;;22.50;13.60;;;;;;5092429;28;20204;-76
2021/09/25 12:00:14;;;;;;;6.40;5.07;;;22.60;8.60;;;;;;5082809;28;20180;-76
2021/09/25 12:02:44;;;;;;;6.47;5.00;;;22.70;1.20;;;;;;5063168;28;20203;-76
2021/09/25 12:05:31;;;;;;;6.73;5.00;;;22.80;1.70;;;;;;5086304;28;20208;-76
2021/09/25 12:08:00;;;;;;;8.67;5.60;;;22.80;7.70;;;;;;5075884;28;20666;-77
2021/09/25 12:10:29;;;;;;;9.00;5.90;;;22.80;9.60;;;;;;5092251;28;20201;-77
2021/09/25 12:12:57;;;;;;;6.33;5.07;;;22.80;9.70;;;;;;5090868;28;20176;-78
2021/09/25 12:15:25;;;;;;;5.87;4.97;;;23.00;8.60;;;;;;5096944;28;20169;-78
2021/09/25 12:18:20;;;;;;;7.83;5.33;;;23.30;7.00;;;;;;5094044;28;20200;-75
2021/09/25 12:20:51;;;;;;;5.93;5.23;;;23.30;1.00;;;;;;5093891;28;20191;-82
2021/09/25 12:23:20;;;;;;;6.93;4.80;;;23.40;1.00;;;;;;5093826;28;20175;-84
2021/09/25 12:25:47;;;;;;;6.27;4.83;;;23.40;1.00;;;;;;5096180;28;20180;-78
2021/09/25 12:28:23;;;;;;;8.23;5.20;;;23.30;4.50;;;;;;5076257;28;20175;-78
2021/09/25 12:30:49;;;;;;;5.40;4.37;;;23.40;2.00;;;;;;5090819;28;20168;-83
2021/09/25 12:33:17;;;;;;;6.00;4.70;;;23.50;1.00;;;;;;5084405;28;20575;-78